createdAt,value
2023-05-24T00:00:09.822Z,9.00
2023-05-24T00:02:38.303Z,9.45
2023-05-24T00:05:08.305Z,9.80
2023-05-24T00:07:36.664Z,9.18
2023-05-24T00:10:07.557Z,6.80
2023-05-24T00:12:35.008Z,9.20
2023-05-24T00:15:02.435Z,7.82
2023-05-24T00:17:30.530Z,14.20
2023-05-24T00:19:58.499Z,13.65
2023-05-24T00:22:26.303Z,14.50
2023-05-24T00:24:53.816Z,8.45
2023-05-24T00:27:21.208Z,7.20
2023-05-24T00:29:48.595Z,8.85
2023-05-24T00:32:16.023Z,9.07
2023-05-24T00:34:43.460Z,10.40
2023-05-24T00:37:10.821Z,12.23
2023-05-24T00:39:38.193Z,12.25
2023-05-24T00:42:05.808Z,14.57
2023-05-24T00:44:33.181Z,9.48
2023-05-24T00:47:01.078Z,11.13
2023-05-24T00:49:29.377Z,10.00
2023-05-24T00:51:56.898Z,13.35
2023-05-24T00:54:26.461Z,13.43
2023-05-24T00:56:54.641Z,11.77
2023-05-24T00:59:22.095Z,8.20
2023-05-24T01:01:49.609Z,8.10
2023-05-24T01:04:17.942Z,13.00
2023-05-24T01:06:51.150Z,8.52
2023-05-24T01:09:22.076Z,9.35
2023-05-24T01:12:01.855Z,12.80
2023-05-24T01:14:29.218Z,5.82
2023-05-24T01:16:56.678Z,9.48
2023-05-24T01:19:39.367Z,13.20
2023-05-24T01:22:25.950Z,10.63
2023-05-24T01:25:14.776Z,8.02
2023-05-24T01:27:43.467Z,10.32
2023-05-24T01:30:11.095Z,8.38
2023-05-24T01:32:39.101Z,6.45
2023-05-24T01:35:06.695Z,10.32
2023-05-24T01:37:34.129Z,12.15
2023-05-24T01:40:01.749Z,10.98
2023-05-24T01:42:42.363Z,15.80
2023-05-24T01:45:19.040Z,7.57
2023-05-24T01:47:52.369Z,10.48
2023-05-24T01:50:26.339Z,11.27
2023-05-24T01:52:54.440Z,7.82
2023-05-24T01:55:22.485Z,9.95
2023-05-24T01:57:51.364Z,7.75
2023-05-24T02:00:19.738Z,9.07
2023-05-24T02:02:47.430Z,9.68
2023-05-24T02:05:14.937Z,10.50
2023-05-24T02:07:42.815Z,7.90
2023-05-24T02:10:10.394Z,11.52
2023-05-24T02:12:37.807Z,5.75
2023-05-24T02:15:05.343Z,8.70
2023-05-24T02:17:33.326Z,9.60
2023-05-24T02:20:00.969Z,7.22
2023-05-24T02:22:28.792Z,9.57
2023-05-24T02:24:56.301Z,7.97
2023-05-24T02:27:23.694Z,7.18
2023-05-24T02:29:51.026Z,8.32
2023-05-24T02:32:18.410Z,6.45
2023-05-24T02:34:46.069Z,6.57
2023-05-24T02:37:15.082Z,7.68
2023-05-24T02:39:43.083Z,9.55
2023-05-24T02:42:11.645Z,6.78
2023-05-24T02:44:39.009Z,6.78
2023-05-24T02:47:06.526Z,11.05
2023-05-24T02:49:33.929Z,13.90
2023-05-24T02:52:01.293Z,8.95
2023-05-24T02:54:28.632Z,10.73
2023-05-24T02:56:56.917Z,11.48
2023-05-24T02:59:24.915Z,9.25
2023-05-24T03:01:52.395Z,6.57
2023-05-24T03:04:19.808Z,7.97
2023-05-24T03:06:47.482Z,10.80
2023-05-24T03:09:16.965Z,6.72
2023-05-24T03:11:44.336Z,11.32
2023-05-24T03:14:11.698Z,8.50
2023-05-24T03:16:39.102Z,6.63
2023-05-24T03:19:09.110Z,13.85
2023-05-24T03:21:37.363Z,9.38
2023-05-24T03:24:04.803Z,12.93
2023-05-24T03:26:32.194Z,6.50
2023-05-24T03:28:59.531Z,8.63
2023-05-24T03:31:27.024Z,9.88
2023-05-24T03:33:55.555Z,7.72
2023-05-24T03:36:23.061Z,8.20
2023-05-24T03:38:50.596Z,13.13
2023-05-24T03:41:17.971Z,10.20
2023-05-24T03:43:45.619Z,7.70
2023-05-24T03:46:13.092Z,10.82
2023-05-24T03:48:40.461Z,6.20
2023-05-24T03:51:09.494Z,9.82
2023-05-24T03:53:36.933Z,12.10
2023-05-24T03:56:04.403Z,7.30
2023-05-24T03:58:31.765Z,12.80
2023-05-24T04:00:59.170Z,5.43
2023-05-24T04:03:26.680Z,6.57
2023-05-24T04:05:54.977Z,11.70
2023-05-24T04:08:22.475Z,8.73
2023-05-24T04:10:49.891Z,12.10
2023-05-24T04:13:17.263Z,12.95
2023-05-24T04:15:44.634Z,10.02
2023-05-24T04:18:12.482Z,7.95
2023-05-24T04:20:40.094Z,9.60
2023-05-24T04:23:07.651Z,9.52
2023-05-24T04:25:35.397Z,14.55
2023-05-24T04:28:04.049Z,8.68
2023-05-24T04:30:31.557Z,10.48
2023-05-24T04:32:59.077Z,9.57
2023-05-24T04:35:26.561Z,10.55
2023-05-24T04:37:53.992Z,11.52
2023-05-24T04:40:21.380Z,12.18
2023-05-24T04:42:48.756Z,13.63
2023-05-24T04:45:16.165Z,13.10
2023-05-24T04:47:43.645Z,6.32
2023-05-24T04:50:11.239Z,11.85
2023-05-24T04:52:38.713Z,11.30
2023-05-24T04:55:06.300Z,10.57
2023-05-24T04:57:33.739Z,9.23
2023-05-24T05:00:01.163Z,20.27
2023-05-24T05:02:28.615Z,8.10
2023-05-24T05:04:56.412Z,10.48
2023-05-24T05:07:23.842Z,14.82
2023-05-24T05:09:51.469Z,12.20
2023-05-24T05:12:19.023Z,9.82
2023-05-24T05:14:46.398Z,11.45
2023-05-24T05:17:13.971Z,10.35
2023-05-24T05:19:41.407Z,8.75
2023-05-24T05:22:08.788Z,12.30
2023-05-24T05:24:36.177Z,14.50
2023-05-24T05:27:03.589Z,12.48
2023-05-24T05:29:30.979Z,8.55
2023-05-24T05:31:58.472Z,10.77
2023-05-24T05:34:26.058Z,10.45
2023-05-24T05:36:53.507Z,10.13
2023-05-24T05:39:21.095Z,14.50
2023-05-24T05:41:48.457Z,10.38
2023-05-24T05:44:16.002Z,13.88
2023-05-24T05:46:46.618Z,11.40
2023-05-24T05:49:15.493Z,11.30
2023-05-24T05:54:14.599Z,16.52
2023-05-24T05:56:47.022Z,13.05
2023-05-24T05:59:16.021Z,11.23
2023-05-24T06:01:44.105Z,21.27
2023-05-24T06:04:11.650Z,16.20
2023-05-24T06:06:39.124Z,10.02
2023-05-24T06:09:06.482Z,19.52
2023-05-24T06:11:34.068Z,16.33
2023-05-24T06:14:01.548Z,12.80
2023-05-24T06:16:29.037Z,12.95
2023-05-24T06:19:05.541Z,12.95
2023-05-24T06:21:33.574Z,18.27
2023-05-24T06:24:02.828Z,22.42
2023-05-24T06:26:30.187Z,13.63
2023-05-24T06:28:57.547Z,18.98
2023-05-24T06:31:24.970Z,16.27
2023-05-24T06:34:03.697Z,17.55
2023-05-24T06:36:35.985Z,19.08
2023-05-24T06:39:04.417Z,18.45
2023-05-24T06:41:31.772Z,19.33
2023-05-24T06:43:59.099Z,18.00
2023-05-24T06:46:26.653Z,21.48
2023-05-24T06:48:54.186Z,18.65
2023-05-24T06:51:22.099Z,22.42
2023-05-24T06:53:49.439Z,21.80
2023-05-24T06:56:16.961Z,15.80
2023-05-24T06:58:44.401Z,19.83
2023-05-24T07:01:12.138Z,18.55
2023-05-24T07:03:39.864Z,20.52
2023-05-24T07:06:10.153Z,21.80
2023-05-24T07:08:37.612Z,19.83
2023-05-24T07:11:05.027Z,16.52
2023-05-24T07:13:32.399Z,25.17
2023-05-24T07:15:59.828Z,24.52
2023-05-24T07:18:27.184Z,24.63
2023-05-24T07:20:55.185Z,19.83
2023-05-24T07:23:22.722Z,19.42
2023-05-24T07:25:50.088Z,21.75
2023-05-24T07:28:20.294Z,15.95
2023-05-24T07:30:48.064Z,23.42
2023-05-24T07:33:15.842Z,18.60
2023-05-24T07:35:43.515Z,24.05
2023-05-24T07:38:11.940Z,20.75
2023-05-24T07:40:39.666Z,23.65
2023-05-24T07:43:07.079Z,19.50
2023-05-24T07:45:34.479Z,16.00
2023-05-24T07:48:02.261Z,18.17
2023-05-24T07:50:29.828Z,15.30
2023-05-24T07:52:58.047Z,18.05
2023-05-24T07:55:25.914Z,16.58
2023-05-24T07:57:53.281Z,20.08
2023-05-24T08:00:21.137Z,16.05
2023-05-24T08:02:48.604Z,21.67
2023-05-24T08:05:17.009Z,17.27
2023-05-24T08:07:44.415Z,14.57
2023-05-24T08:10:14.727Z,14.77
2023-05-24T08:12:43.017Z,15.90
2023-05-24T08:15:11.095Z,22.52
2023-05-24T08:17:41.848Z,20.58
2023-05-24T08:20:16.329Z,14.25
2023-05-24T08:22:43.912Z,12.37
2023-05-24T08:25:14.670Z,12.00
2023-05-24T08:27:42.035Z,17.35
2023-05-24T08:30:09.691Z,17.08
2023-05-24T08:32:37.098Z,18.15
2023-05-24T08:35:19.321Z,16.58
2023-05-24T08:37:49.704Z,13.75
2023-05-24T08:40:17.513Z,14.75
2023-05-24T08:42:46.226Z,16.85
2023-05-24T08:45:14.303Z,13.57
2023-05-24T08:47:42.686Z,14.35
2023-05-24T08:50:10.406Z,13.52
2023-05-24T08:52:38.079Z,12.90
2023-05-24T08:55:05.891Z,13.20
2023-05-24T08:57:35.105Z,11.95
2023-05-24T09:00:02.642Z,15.32
2023-05-24T09:02:31.038Z,21.88
2023-05-24T09:04:59.523Z,13.02
2023-05-24T09:07:27.150Z,14.50
2023-05-24T09:09:58.371Z,10.02
2023-05-24T09:12:36.181Z,20.55
2023-05-24T09:15:06.342Z,13.75
2023-05-24T09:17:34.034Z,16.15
2023-05-24T09:20:01.734Z,15.07
2023-05-24T09:22:31.032Z,17.52
2023-05-24T09:24:59.973Z,18.90
2023-05-24T09:27:27.519Z,18.73
2023-05-24T09:29:56.185Z,17.35
2023-05-24T09:32:24.710Z,15.20
2023-05-24T09:34:57.564Z,12.43
2023-05-24T09:37:31.106Z,14.15
2023-05-24T09:39:59.940Z,14.75
2023-05-24T09:42:28.976Z,12.18
2023-05-24T09:45:01.816Z,14.27
2023-05-24T09:47:30.138Z,16.38
2023-05-24T09:49:57.556Z,15.05
2023-05-24T09:52:24.987Z,15.75
2023-05-24T09:54:52.647Z,13.68
2023-05-24T09:57:22.996Z,13.13
2023-05-24T09:59:50.901Z,11.77
2023-05-24T10:02:21.718Z,14.95
2023-05-24T10:04:49.364Z,12.57
2023-05-24T10:07:17.228Z,11.00
2023-05-24T10:09:45.557Z,12.27
2023-05-24T10:12:12.896Z,10.77
2023-05-24T10:14:40.359Z,11.32
2023-05-24T10:17:08.447Z,10.82
2023-05-24T10:19:36.540Z,13.00
2023-05-24T10:22:07.635Z,10.93
2023-05-24T10:24:41.190Z,9.30
2023-05-24T10:27:13.759Z,12.45
2023-05-24T10:29:59.736Z,10.00
2023-05-24T10:32:31.776Z,15.45
2023-05-24T10:35:00.843Z,12.85
2023-05-24T10:37:28.293Z,13.20
2023-05-24T10:39:55.691Z,16.88
2023-05-24T10:42:23.931Z,12.20
2023-05-24T10:44:51.951Z,12.75
2023-05-24T10:47:21.786Z,12.55
2023-05-24T10:49:53.263Z,10.80
2023-05-24T10:52:21.155Z,10.45
2023-05-24T10:55:18.162Z,16.40
2023-05-24T10:57:45.827Z,14.68
2023-05-24T11:03:03.060Z,12.88
2023-05-24T11:05:34.315Z,12.20
2023-05-24T11:08:01.760Z,15.43
2023-05-24T11:10:32.799Z,11.82
2023-05-24T11:13:04.313Z,10.15
2023-05-24T11:15:31.714Z,10.23
2023-05-24T11:18:09.387Z,14.50
2023-05-24T11:20:36.963Z,10.10
2023-05-24T11:23:04.920Z,9.32
2023-05-24T11:25:34.042Z,7.88
2023-05-24T11:28:02.215Z,10.70
2023-05-24T11:30:29.795Z,9.07
2023-05-24T11:32:57.452Z,12.75
2023-05-24T11:35:28.046Z,12.93
2023-05-24T11:37:55.476Z,13.02
2023-05-24T11:40:22.959Z,12.15
2023-05-24T11:42:50.988Z,9.57
2023-05-24T11:45:21.661Z,14.05
2023-05-24T11:47:50.772Z,11.45
2023-05-24T11:50:26.565Z,10.63
2023-05-24T11:52:54.303Z,7.05
2023-05-24T11:55:25.130Z,8.43
2023-05-24T11:57:55.456Z,9.55
2023-05-24T12:00:26.535Z,11.85
2023-05-24T12:02:57.434Z,8.23
2023-05-24T12:05:25.005Z,9.85
2023-05-24T12:08:02.244Z,9.65
2023-05-24T12:10:29.703Z,6.78
2023-05-24T12:12:58.182Z,9.45
2023-05-24T12:15:25.679Z,11.15
2023-05-24T12:17:53.734Z,8.48
2023-05-24T12:20:21.904Z,9.02
2023-05-24T12:22:51.038Z,8.55
2023-05-24T12:25:21.423Z,7.22
2023-05-24T12:27:56.534Z,10.38
2023-05-24T12:32:51.497Z,7.63
2023-05-24T12:35:19.258Z,7.82
2023-05-24T12:37:46.739Z,7.78
2023-05-24T12:40:17.970Z,10.82
2023-05-24T12:42:46.072Z,8.15
2023-05-24T12:45:13.467Z,8.75
2023-05-24T12:47:41.121Z,6.80
2023-05-24T12:50:08.819Z,8.77
2023-05-24T12:52:36.177Z,8.90
2023-05-24T12:55:03.607Z,9.65
2023-05-24T12:57:31.308Z,7.45
2023-05-24T12:59:58.718Z,5.00
2023-05-24T13:02:26.281Z,9.38
2023-05-24T13:04:54.081Z,11.43
2023-05-24T13:07:21.507Z,9.00
2023-05-24T13:09:49.554Z,6.13
2023-05-24T13:12:16.934Z,5.40
2023-05-24T13:14:44.857Z,7.82
2023-05-24T13:17:12.282Z,8.75
2023-05-24T13:19:39.698Z,6.47
2023-05-24T13:22:07.194Z,5.13
2023-05-24T13:24:34.718Z,6.00
2023-05-24T13:27:02.166Z,3.22
2023-05-24T13:29:39.437Z,3.65
2023-05-24T13:32:10.211Z,6.20
2023-05-24T13:34:37.621Z,4.55
2023-05-24T13:37:05.135Z,3.67
2023-05-24T13:39:32.557Z,3.50
2023-05-24T13:42:01.320Z,3.55
2023-05-24T13:44:28.876Z,3.78
2023-05-24T13:46:56.831Z,2.72
2023-05-24T13:49:24.253Z,5.32
2023-05-24T13:51:51.811Z,2.20
2023-05-24T13:54:19.241Z,3.30
2023-05-24T13:56:49.206Z,4.07
2023-05-24T13:59:17.202Z,2.85
2023-05-24T14:01:45.903Z,3.03
2023-05-24T14:04:13.425Z,3.85
2023-05-24T14:06:40.804Z,4.65
2023-05-24T14:09:08.632Z,1.95
2023-05-24T14:11:36.601Z,3.67
2023-05-24T14:16:34.385Z,4.57
2023-05-24T14:19:01.795Z,2.22
2023-05-24T14:21:29.155Z,4.80
2023-05-24T14:23:56.544Z,2.35
2023-05-24T14:26:24.330Z,1.92
2023-05-24T14:28:54.408Z,2.40
2023-05-24T14:31:23.730Z,3.05
2023-05-24T14:33:51.186Z,3.53
2023-05-24T14:36:18.657Z,2.65
2023-05-24T14:38:46.232Z,5.65
2023-05-24T14:41:13.618Z,3.55
2023-05-24T14:43:42.137Z,3.22
2023-05-24T14:46:09.794Z,3.55
2023-05-24T14:48:37.578Z,2.33
2023-05-24T14:51:04.953Z,7.40
2023-05-24T14:53:32.457Z,4.85
2023-05-24T14:55:59.872Z,3.97
2023-05-24T14:58:27.455Z,3.97
2023-05-24T15:00:54.840Z,3.80
2023-05-24T15:03:22.453Z,6.82
2023-05-24T15:05:49.906Z,4.85
2023-05-24T15:08:17.351Z,4.88
2023-05-24T15:10:45.377Z,3.83
2023-05-24T15:13:13.539Z,4.40
2023-05-24T15:15:42.240Z,5.70
2023-05-24T15:18:10.102Z,4.97
2023-05-24T15:20:37.635Z,4.55
2023-05-24T15:23:05.232Z,4.82
2023-05-24T15:30:44.889Z,6.05
2023-05-24T15:33:12.593Z,4.07
2023-05-24T15:35:40.304Z,3.45
2023-05-24T15:38:07.700Z,5.05
2023-05-24T15:40:35.078Z,5.28
2023-05-24T15:43:02.589Z,3.25
2023-05-24T15:45:29.949Z,4.10
2023-05-24T15:47:57.484Z,5.10
2023-05-24T15:50:42.593Z,3.75
2023-05-24T15:53:12.389Z,5.10
2023-05-24T15:55:39.750Z,4.88
2023-05-24T15:58:07.365Z,5.63
2023-05-24T16:00:34.735Z,2.67
2023-05-24T16:03:02.292Z,3.83
2023-05-24T16:05:29.876Z,3.63
2023-05-24T16:07:57.276Z,4.80
2023-05-24T16:10:24.827Z,4.10
2023-05-24T16:12:52.260Z,4.30
2023-05-24T16:15:19.661Z,3.35
2023-05-24T16:17:47.093Z,3.38
2023-05-24T16:20:14.550Z,4.25
2023-05-24T16:22:48.960Z,3.30
2023-05-24T16:25:16.545Z,5.68
2023-05-24T16:27:43.946Z,6.00
2023-05-24T16:30:11.494Z,3.08
2023-05-24T16:32:39.671Z,5.70
2023-05-24T16:35:10.930Z,4.70
2023-05-24T16:37:38.412Z,6.30
2023-05-24T16:40:06.046Z,4.85
2023-05-24T16:42:33.419Z,3.60
2023-05-24T16:45:00.875Z,4.85
2023-05-24T16:47:29.937Z,3.00
2023-05-24T16:49:57.673Z,3.40
2023-05-24T16:52:25.346Z,6.03
2023-05-24T16:54:52.800Z,3.00
2023-05-24T16:57:20.204Z,5.18
2023-05-24T16:59:50.560Z,2.90
2023-05-24T17:02:18.222Z,3.70
2023-05-24T17:04:45.604Z,4.88
2023-05-24T17:07:12.971Z,2.97
2023-05-24T17:09:40.375Z,5.35
2023-05-24T17:12:07.860Z,3.15
2023-05-24T17:14:35.334Z,2.78
2023-05-24T17:17:04.579Z,3.38
2023-05-24T17:19:33.440Z,4.70
2023-05-24T17:22:01.062Z,2.35
2023-05-24T17:24:29.063Z,3.80
2023-05-24T17:26:56.462Z,2.20
2023-05-24T17:29:24.118Z,3.45
2023-05-24T17:31:51.568Z,2.53
2023-05-24T17:34:19.017Z,3.80
2023-05-24T17:36:46.603Z,3.85
2023-05-24T17:39:15.765Z,2.22
2023-05-24T17:41:44.092Z,2.20
2023-05-24T17:44:11.655Z,2.70
2023-05-24T17:46:41.260Z,4.00
2023-05-24T17:49:09.128Z,2.45
2023-05-24T17:51:39.033Z,2.90
2023-05-24T17:54:06.606Z,2.22
2023-05-24T17:56:33.986Z,1.92
2023-05-24T17:59:01.505Z,2.00
2023-05-24T18:01:29.453Z,2.13
2023-05-24T18:03:56.858Z,2.17
2023-05-24T18:06:24.265Z,4.47
2023-05-24T18:08:51.674Z,2.58
2023-05-24T18:11:19.212Z,4.10
2023-05-24T18:13:46.679Z,1.92
2023-05-24T18:16:14.226Z,1.70
2023-05-24T18:18:43.951Z,3.90
2023-05-24T18:21:13.299Z,2.42
2023-05-24T18:23:40.782Z,2.53
2023-05-24T18:26:08.822Z,3.25
2023-05-24T18:28:39.592Z,4.20
2023-05-24T18:31:15.190Z,2.30
2023-05-24T18:33:42.652Z,3.25
2023-05-24T18:36:10.124Z,3.08
2023-05-24T18:38:40.166Z,2.20
2023-05-24T18:41:12.317Z,2.28
2023-05-24T18:43:40.172Z,3.72
2023-05-24T18:46:07.745Z,2.88
2023-05-24T18:48:35.200Z,1.60
2023-05-24T18:51:02.710Z,3.80
2023-05-24T18:53:30.103Z,2.72
2023-05-24T18:55:57.552Z,4.03
2023-05-24T18:58:24.948Z,2.63
2023-05-24T19:00:52.415Z,3.80
2023-05-24T19:03:20.894Z,3.28
2023-05-24T19:05:49.622Z,3.70
2023-05-24T19:08:18.094Z,2.45
2023-05-24T19:10:45.471Z,4.22
2023-05-24T19:13:12.889Z,2.97
2023-05-24T19:15:40.250Z,3.13
2023-05-24T19:18:07.714Z,2.40
2023-05-24T19:20:35.311Z,3.28
2023-05-24T19:23:02.782Z,2.50
2023-05-24T19:25:31.486Z,2.22
2023-05-24T19:28:00.711Z,2.20
2023-05-24T19:30:28.585Z,3.20
2023-05-24T19:32:56.283Z,4.47
2023-05-24T19:35:23.851Z,3.00
2023-05-24T19:37:52.408Z,3.30
2023-05-24T19:40:20.229Z,2.35
2023-05-24T19:42:47.603Z,3.85
2023-05-24T19:45:14.999Z,3.10
2023-05-24T19:47:42.454Z,2.53
2023-05-24T19:50:10.044Z,3.05
2023-05-24T19:52:37.459Z,2.92
2023-05-24T19:55:04.984Z,4.25
2023-05-24T19:57:32.372Z,3.50
2023-05-24T19:59:59.709Z,5.65
2023-05-24T20:02:27.164Z,5.93
2023-05-24T20:04:54.700Z,2.38
2023-05-24T20:07:22.165Z,4.28
2023-05-24T20:09:50.103Z,3.58
2023-05-24T20:12:17.531Z,3.67
2023-05-24T20:14:44.904Z,2.28
2023-05-24T20:17:12.322Z,3.13
2023-05-24T20:19:39.716Z,2.50
2023-05-24T20:22:07.277Z,2.88
2023-05-24T20:24:34.788Z,2.60
2023-05-24T20:27:02.525Z,5.10
2023-05-24T20:29:29.949Z,4.43
2023-05-24T20:31:57.455Z,2.92
2023-05-24T20:34:24.946Z,3.88
2023-05-24T20:36:52.306Z,3.58
2023-05-24T20:39:19.678Z,3.60
2023-05-24T20:41:47.053Z,5.75
2023-05-24T20:44:14.912Z,3.63
2023-05-24T20:46:42.714Z,7.15
2023-05-24T20:49:10.108Z,4.30
2023-05-24T20:51:37.630Z,4.20
2023-05-24T20:54:05.250Z,6.35
2023-05-24T20:56:32.672Z,2.38
2023-05-24T20:59:00.282Z,6.05
2023-05-24T21:01:27.821Z,4.03
2023-05-24T21:03:55.420Z,3.38
2023-05-24T21:06:23.203Z,5.00
2023-05-24T21:08:50.609Z,3.83
2023-05-24T21:11:18.021Z,2.72
2023-05-24T21:13:45.447Z,3.00
2023-05-24T21:16:12.824Z,5.72
2023-05-24T21:18:40.190Z,3.45
2023-05-24T21:21:07.757Z,3.00
2023-05-24T21:23:35.162Z,4.22
2023-05-24T21:26:02.653Z,4.28
2023-05-24T21:28:30.033Z,4.15
2023-05-24T21:30:57.373Z,4.38
2023-05-24T21:33:24.848Z,4.25
2023-05-24T21:35:52.210Z,4.10
2023-05-24T21:38:19.584Z,4.28
2023-05-24T21:40:47.015Z,3.42
2023-05-24T21:43:14.449Z,2.40
2023-05-24T21:45:45.087Z,4.50
2023-05-24T21:48:12.580Z,3.40
2023-05-24T21:50:39.994Z,4.93
2023-05-24T21:53:07.776Z,5.10
2023-05-24T21:55:35.182Z,5.15
2023-05-24T21:58:02.548Z,4.13
2023-05-24T22:00:30.768Z,3.72
2023-05-24T22:02:58.250Z,4.47
2023-05-24T22:05:27.765Z,4.22
2023-05-24T22:07:55.489Z,3.20
2023-05-24T22:10:22.872Z,2.85
2023-05-24T22:12:50.260Z,3.50
2023-05-24T22:15:17.663Z,4.57
2023-05-24T22:17:45.035Z,5.72
2023-05-24T22:20:13.010Z,4.05
2023-05-24T22:22:48.409Z,4.68
2023-05-24T22:25:20.986Z,7.65
2023-05-24T22:27:52.061Z,3.28
2023-05-24T22:30:19.737Z,3.40
2023-05-24T22:32:47.081Z,5.30
2023-05-24T22:35:14.479Z,4.40
2023-05-24T22:37:42.106Z,5.45
2023-05-24T22:40:09.663Z,4.30
2023-05-24T22:42:37.062Z,3.92
2023-05-24T22:45:04.583Z,3.78
2023-05-24T22:47:33.704Z,5.63
2023-05-24T22:50:02.427Z,3.03
2023-05-24T22:52:33.932Z,4.13
2023-05-24T22:55:02.016Z,2.80
2023-05-24T22:57:29.398Z,4.18
2023-05-24T22:59:56.767Z,3.58
2023-05-24T23:02:24.241Z,6.50
2023-05-24T23:04:51.720Z,4.60
2023-05-24T23:07:21.922Z,5.53
2023-05-24T23:09:50.200Z,5.18
2023-05-24T23:12:18.659Z,5.28
2023-05-24T23:14:46.669Z,4.30
2023-05-24T23:17:14.301Z,5.35
2023-05-24T23:19:46.568Z,4.72
2023-05-24T23:22:18.511Z,8.50
2023-05-24T23:24:47.635Z,4.88
2023-05-24T23:27:15.178Z,8.50
2023-05-24T23:29:42.540Z,5.18
2023-05-24T23:32:10.363Z,5.68
2023-05-24T23:34:38.049Z,5.53
2023-05-24T23:37:06.213Z,4.43
2023-05-24T23:39:33.624Z,5.25
2023-05-24T23:42:02.681Z,5.65
2023-05-24T23:44:30.263Z,4.22
2023-05-24T23:46:57.994Z,5.95
2023-05-24T23:49:25.884Z,6.18
2023-05-24T23:51:53.320Z,8.10
2023-05-24T23:54:20.956Z,5.13
2023-05-24T23:56:48.779Z,5.38
2023-05-24T23:59:17.543Z,4.57
